Data Viewer
| City | State | Eastern Time | Source | Temp | DewPt | RH | BP | 5 Min Precip | Wind Speed | Wind Dir | 5 Min Wind Max | 5 Min Wind Max Dir |
|---|---|---|---|---|---|---|---|---|---|---|---|---|
| Sussex | NJ | 2026-05-05 17:40 | ASOS | 81 | 39 | 23 | 29.72 | 10 | SSW | |||
| Sussex | NJ | 2026-05-06 11:06 | ASOS | 65 | 56 | 73 | 29.78 | 3 | SSW | |||
| Sussex | NJ | 2026-05-06 10:15 | ASOS | 66 | 54 | 64 | 29.79 | |||||
| Sussex | NJ | 2026-05-06 10:20 | ASOS | 66 | 54 | 64 | 29.79 | 8 | SSW | |||
| Sussex | NJ | 2026-05-06 10:25 | ASOS | 66 | 54 | 64 | 29.79 | 7 | SW | |||
| Sussex | NJ | 2026-05-06 10:30 | ASOS | 66 | 54 | 64 | 29.79 | 5 | SW | |||
| Sussex | NJ | 2026-05-06 10:35 | ASOS | 66 | 54 | 64 | 29.79 | 8 | SW | |||
| Sussex | NJ | 2026-05-06 10:53 | ASOS | 65 | 56 | 73 | 29.79 | 3 | SSW | |||
| Sussex | NJ | 2026-05-06 11:20 | ASOS | 64 | 57 | 77 | 29.77 | 5 | S | |||
| Sussex | NJ | 2026-05-06 09:36 | ASOS | 67 | 53 | 61 | 29.79 | 8 | SW | |||
| Sussex | NJ | 2026-05-06 11:25 | ASOS | 64 | 57 | 77 | 29.77 | 5 | SSW | |||
| Sussex | NJ | 2026-05-06 11:30 | ASOS | 64 | 57 | 77 | 29.78 | 5 | SSW | |||
| Sussex | NJ | 2026-05-06 11:35 | ASOS | 64 | 57 | 77 | 29.78 | 5 | SSW | |||
| Sussex | NJ | 2026-05-06 12:15 | ASOS | 64 | 57 | 77 | 29.76 | 9 | S | |||
| Sussex | NJ | 2026-05-06 12:25 | ASOS | 64 | 57 | 77 | 29.75 | 7 | SSW | |||
| Sussex | NJ | 2026-05-06 12:30 | ASOS | 63 | 57 | 83 | 29.76 | 9 | SSW | |||
| Sussex | NJ | 2026-05-06 12:35 | ASOS | 63 | 57 | 83 | 29.76 | |||||
| Sussex | NJ | 2026-05-06 09:53 | ASOS | 67 | 53 | 61 | 29.79 | 7 | SSW | |||
| Sussex | NJ | 2026-05-06 09:35 | ASOS | 66 | 54 | 64 | 29.79 | 9 | SW | |||
| Sussex | NJ | 2026-05-06 12:53 | ASOS | 63 | 57 | 81 | 29.75 | |||||
| Sussex | NJ | 2026-05-06 08:15 | ASOS | 66 | 54 | 64 | 29.79 | 8 | S | |||
| Sussex | NJ | 2026-05-06 07:20 | ASOS | 66 | 54 | 64 | 29.79 | 7 | SSW | |||
| Sussex | NJ | 2026-05-06 07:25 | ASOS | 66 | 54 | 64 | 29.80 | 8 | SSW | |||
| Sussex | NJ | 2026-05-06 07:30 | ASOS | 66 | 54 | 64 | 29.80 | 3 | SSW | |||
| Sussex | NJ | 2026-05-06 07:35 | ASOS | 66 | 54 | 64 | 29.79 | 9 | SSW | |||
| Sussex | NJ | 2026-05-06 07:40 | ASOS | 66 | 54 | 64 | 29.79 | 7 | SSW | |||
| Sussex | NJ | 2026-05-06 07:53 | ASOS | 66 | 53 | 63 | 29.79 | 6 | SSW | |||
| Sussex | NJ | 2026-05-06 08:20 | ASOS | 66 | 54 | 64 | 29.79 | 9 | SSW | |||
| Sussex | NJ | 2026-05-06 09:30 | ASOS | 66 | 54 | 64 | 29.79 | 10 | SSW | |||
| Sussex | NJ | 2026-05-06 08:25 | ASOS | 66 | 54 | 64 | 29.78 | 10 | SSW | |||
| Sussex | NJ | 2026-05-06 08:30 | ASOS | 66 | 54 | 64 | 29.78 | 7 | SSW | |||
| Sussex | NJ | 2026-05-06 08:35 | ASOS | 66 | 54 | 64 | 29.78 | 8 | SSW | |||
| Sussex | NJ | 2026-05-06 08:53 | ASOS | 67 | 53 | 61 | 29.79 | 12 | SSW | |||
| Sussex | NJ | 2026-05-06 09:15 | ASOS | 66 | 54 | 64 | 29.79 | 7 | SW | |||
| Sussex | NJ | 2026-05-06 09:20 | ASOS | 66 | 54 | 64 | 29.79 | |||||
| Sussex | NJ | 2026-05-06 09:25 | ASOS | 66 | 54 | 64 | 29.80 | 13 | SW | |||
| Sussex | NJ | 2026-05-06 12:40 | ASOS | 63 | 57 | 81 | 29.75 | 7 | S | |||
| Sussex | NJ | 2026-05-06 13:20 | ASOS | 63 | 57 | 83 | 29.75 | 7 | SSW | |||
| Sussex | NJ | 2026-05-06 06:53 | ASOS | 66 | 53 | 63 | 29.79 | 7 | SSW | |||
| Sussex | NJ | 2026-05-06 16:00 | ASOS | 63 | 58 | 84 | 29.71 | 8 | SW | |||
| Sussex | NJ | 2026-05-06 15:25 | ASOS | 63 | 57 | 83 | 29.73 | 5 | SSW | |||
| Sussex | NJ | 2026-05-06 15:30 | ASOS | 63 | 57 | 83 | 29.73 | 5 | SSW | |||
| Sussex | NJ | 2026-05-06 15:34 | ASOS | 63 | 58 | 84 | 29.73 | 7 | SSW | |||
| Sussex | NJ | 2026-05-06 15:35 | ASOS | 63 | 57 | 83 | 29.73 | 6 | SSW | |||
| Sussex | NJ | 2026-05-06 15:44 | ASOS | 63 | 58 | 84 | 29.72 | 5 | ||||
| Sussex | NJ | 2026-05-06 15:53 | ASOS | 63 | 58 | 84 | 29.72 | 7 | SSW | |||
| Sussex | NJ | 2026-05-06 16:10 | ASOS | 63 | 57 | 83 | 29.71 | 9 | SSW | |||
| Sussex | NJ | 2026-05-06 15:15 | ASOS | 63 | 57 | 83 | 29.74 | 5 | SSW | |||
| Sussex | NJ | 2026-05-06 16:15 | ASOS | 63 | 57 | 83 | 29.71 | 6 | WSW | |||
| Sussex | NJ | 2026-05-06 16:20 | ASOS | 63 | 57 | 83 | 29.71 | 6 | SSW | |||
| Sussex | NJ | 2026-05-06 16:25 | ASOS | 63 | 57 | 83 | 29.71 | 7 | SW | |||
| Sussex | NJ | 2026-05-06 16:30 | ASOS | 63 | 57 | 83 | 29.71 | 7 | SW | |||
| Sussex | NJ | 2026-05-06 16:53 | ASOS | 62 | 57 | 84 | 29.72 | 6 | ||||
| Sussex | NJ | 2026-05-06 17:20 | ASOS | 63 | 57 | 83 | 29.72 | 6 | SW | |||
| Sussex | NJ | 2026-05-06 17:25 | ASOS | 63 | 57 | 83 | 29.73 | 6 | SW | |||
| Sussex | NJ | 2026-05-06 15:20 | ASOS | 63 | 57 | 83 | 29.73 | 5 | SSW | |||
| Sussex | NJ | 2026-05-06 15:10 | ASOS | 63 | 57 | 83 | 29.74 | 5 | SSW | |||
| Sussex | NJ | 2026-05-06 13:25 | ASOS | 63 | 57 | 83 | 29.75 | 5 | SW | |||
| Sussex | NJ | 2026-05-06 14:15 | ASOS | 63 | 57 | 83 | 29.75 | 5 | SSW | |||
| Sussex | NJ | 2026-05-06 13:30 | ASOS | 63 | 57 | 83 | 29.75 | 7 | SSW | |||
| Sussex | NJ | 2026-05-06 13:35 | ASOS | 63 | 57 | 83 | 29.75 | 6 | SSW | |||
| Sussex | NJ | 2026-05-06 13:37 | ASOS | 62 | 57 | 84 | 29.75 | 5 | ||||
| Sussex | NJ | 2026-05-06 13:40 | ASOS | 63 | 57 | 83 | 29.76 | 6 | SSW | |||
| Sussex | NJ | 2026-05-06 13:42 | ASOS | 62 | 57 | 84 | 29.76 | 6 | ||||
| Sussex | NJ | 2026-05-06 13:53 | ASOS | 62 | 57 | 84 | 29.75 | 6 | SW | |||
| Sussex | NJ | 2026-05-06 14:20 | ASOS | 63 | 57 | 83 | 29.75 | 5 | SSW | |||
| Sussex | NJ | 2026-05-06 15:05 | ASOS | 63 | 57 | 83 | 29.74 | 3 | SSW | |||
| Sussex | NJ | 2026-05-06 14:21 | ASOS | 62 | 57 | 84 | 29.75 | 6 | ||||
| Sussex | NJ | 2026-05-06 14:25 | ASOS | 63 | 57 | 83 | 29.75 | 6 | SSW | |||
| Sussex | NJ | 2026-05-06 14:30 | ASOS | 63 | 57 | 83 | 29.75 | 7 | SSW | |||
| Sussex | NJ | 2026-05-06 14:35 | ASOS | 63 | 57 | 83 | 29.75 | 6 | SSW | |||
| Sussex | NJ | 2026-05-06 14:47 | ASOS | 63 | 57 | 83 | 29.74 | 3 | ||||
| Sussex | NJ | 2026-05-06 14:48 | ASOS | 63 | 58 | 84 | 29.74 | 6 | SSW | |||
| Sussex | NJ | 2026-05-06 15:00 | ASOS | 63 | 57 | 83 | 29.74 | |||||
| Sussex | NJ | 2026-05-06 07:15 | ASOS | 66 | 54 | 64 | 29.79 | 7 | SSW | |||
| Sussex | NJ | 2026-05-06 06:35 | ASOS | 66 | 54 | 64 | 29.78 | 6 | SSW | |||
| Sussex | NJ | 2026-05-05 17:53 | ASOS | 80 | 39 | 23 | 29.72 | |||||
| Sussex | NJ | 2026-05-05 21:53 | ASOS | 75 | 44 | 33 | 29.79 | 6 | ||||
| Sussex | NJ | 2026-05-05 20:35 | ASOS | 75 | 39 | 27 | 29.77 | 6 | S | |||
| Sussex | NJ | 2026-05-05 20:53 | ASOS | 75 | 41 | 29 | 29.77 | 7 | ||||
| Sussex | NJ | 2026-05-05 21:15 | ASOS | 75 | 43 | 31 | 29.78 | 5 | SW | |||
| Sussex | NJ | 2026-05-05 21:20 | ASOS | 73 | 43 | 33 | 29.78 | 6 | SSW | |||
| Sussex | NJ | 2026-05-05 21:25 | ASOS | 73 | 43 | 33 | 29.78 | 6 | SSW | |||
| Sussex | NJ | 2026-05-05 21:40 | ASOS | 75 | 43 | 31 | 29.79 | 7 | SSW | |||
| Sussex | NJ | 2026-05-05 22:15 | ASOS | 73 | 45 | 36 | 29.79 | 9 | SSW | |||
| Sussex | NJ | 2026-05-05 20:25 | ASOS | 77 | 39 | 26 | 29.76 | 6 | SSW | |||
| Sussex | NJ | 2026-05-05 22:20 | ASOS | 73 | 45 | 36 | 29.79 | 7 | SW | |||
| Sussex | NJ | 2026-05-05 22:25 | ASOS | 73 | 45 | 36 | 29.80 | 10 | SW | |||
| Sussex | NJ | 2026-05-05 22:30 | ASOS | 73 | 45 | 36 | 29.79 | 7 | SW | |||
| Sussex | NJ | 2026-05-05 22:35 | ASOS | 73 | 45 | 36 | 29.79 | 7 | SSW | |||
| Sussex | NJ | 2026-05-05 22:53 | ASOS | 73 | 44 | 35 | 29.80 | |||||
| Sussex | NJ | 2026-05-05 23:15 | ASOS | 72 | 45 | 38 | 29.80 | 7 | SSW | |||
| Sussex | NJ | 2026-05-05 23:20 | ASOS | 72 | 45 | 38 | 29.80 | 7 | SSW | |||
| Sussex | NJ | 2026-05-05 20:30 | ASOS | 75 | 39 | 27 | 29.77 | 5 | SSW | |||
| Sussex | NJ | 2026-05-05 20:20 | ASOS | 77 | 39 | 26 | 29.76 | 6 | SW | |||
| Sussex | NJ | 2026-05-05 23:30 | ASOS | 72 | 45 | 38 | 29.80 | 10 | SSW | |||
| Sussex | NJ | 2026-05-05 18:30 | ASOS | 79 | 39 | 24 | 29.74 | 8 | SSW | |||
| Sussex | NJ | 2026-05-05 18:00 | ASOS | 79 | 39 | 24 | 29.73 | 9 | SSW | |||
| Sussex | NJ | 2026-05-05 18:05 | ASOS | 79 | 39 | 24 | 29.74 | 9 | SSW | |||
| Sussex | NJ | 2026-05-05 18:10 | ASOS | 79 | 39 | 24 | 29.74 | |||||
| Sussex | NJ | 2026-05-05 18:15 | ASOS | 79 | 39 | 24 | 29.74 | 13 | SSW | |||
| Sussex | NJ | 2026-05-05 18:20 | ASOS | 79 | 39 | 24 | 29.74 | 10 | SSW | |||
| Sussex | NJ | 2026-05-05 18:25 | ASOS | 79 | 39 | 24 | 29.74 | 8 | SSW | |||
| Sussex | NJ | 2026-05-05 18:35 | ASOS | 79 | 39 | 24 | 29.75 | 9 | SSW | |||
| Sussex | NJ | 2026-05-05 20:15 | ASOS | 77 | 39 | 26 | 29.76 | 8 | SSW | |||
| Sussex | NJ | 2026-05-05 18:53 | ASOS | 78 | 40 | 26 | 29.75 | 10 | SSW | |||
| Sussex | NJ | 2026-05-05 19:05 | ASOS | 79 | 41 | 26 | 29.75 | 10 | SW | |||
| Sussex | NJ | 2026-05-05 19:10 | ASOS | 77 | 41 | 28 | 29.75 | 8 | SSW | |||
| Sussex | NJ | 2026-05-05 19:15 | ASOS | 79 | 41 | 26 | 29.75 | 8 | SSW | |||
| Sussex | NJ | 2026-05-05 19:20 | ASOS | 79 | 41 | 26 | 29.75 | 9 | SSW | |||
| Sussex | NJ | 2026-05-05 19:25 | ASOS | 77 | 41 | 28 | 29.76 | 7 | SW | |||
| Sussex | NJ | 2026-05-05 19:53 | ASOS | 77 | 40 | 26 | 29.76 | 9 | SSW | |||
| Sussex | NJ | 2026-05-05 23:25 | ASOS | 72 | 45 | 38 | 29.80 | 7 | SSW | |||
| Sussex | NJ | 2026-05-05 23:35 | ASOS | 72 | 45 | 38 | 29.80 | 6 | SSW | |||
| Sussex | NJ | 2026-05-06 06:30 | ASOS | 66 | 54 | 64 | 29.78 | 9 | S | |||
| Sussex | NJ | 2026-05-06 05:15 | ASOS | 66 | 52 | 60 | 29.78 | |||||
| Sussex | NJ | 2026-05-06 04:15 | ASOS | 66 | 50 | 56 | 29.79 | 3 | SW | |||
| Sussex | NJ | 2026-05-06 04:20 | ASOS | 66 | 50 | 56 | 29.79 | |||||
| Sussex | NJ | 2026-05-06 04:25 | ASOS | 66 | 50 | 56 | 29.79 | 7 | SW | |||
| Sussex | NJ | 2026-05-06 04:30 | ASOS | 66 | 52 | 60 | 29.79 | 6 | SW | |||
| Sussex | NJ | 2026-05-06 04:35 | ASOS | 66 | 52 | 60 | 29.79 | 7 | SSW | |||
| Sussex | NJ | 2026-05-06 04:53 | ASOS | 66 | 51 | 59 | 29.78 | 6 | ||||
| Sussex | NJ | 2026-05-06 05:20 | ASOS | 66 | 52 | 60 | 29.78 | 7 | SSW | |||
| Sussex | NJ | 2026-05-06 03:35 | ASOS | 66 | 48 | 52 | 29.79 | 3 | SW | |||
| Sussex | NJ | 2026-05-06 05:25 | ASOS | 66 | 52 | 60 | 29.78 | 8 | SSW | |||
| Sussex | NJ | 2026-05-06 05:30 | ASOS | 66 | 54 | 64 | 29.78 | 6 | SSW | |||
| Sussex | NJ | 2026-05-06 05:35 | ASOS | 66 | 54 | 64 | 29.78 | 7 | SSW | |||
| Sussex | NJ | 2026-05-06 05:53 | ASOS | 66 | 53 | 63 | 29.78 | 7 | ||||
| Sussex | NJ | 2026-05-06 06:15 | ASOS | 66 | 54 | 64 | 29.79 | 7 | SSW | |||
| Sussex | NJ | 2026-05-06 06:20 | ASOS | 66 | 54 | 64 | 29.79 | 3 | S | |||
| Sussex | NJ | 2026-05-06 06:25 | ASOS | 66 | 54 | 64 | 29.78 | 8 | SSW | |||
| Sussex | NJ | 2026-05-06 03:53 | ASOS | 67 | 50 | 55 | 29.79 | |||||
| Sussex | NJ | 2026-05-06 03:30 | ASOS | 66 | 48 | 52 | 29.79 | 6 | SW | |||
| Sussex | NJ | 2026-05-05 23:53 | ASOS | 72 | 46 | 40 | 29.80 | 9 | SSW | |||
| Sussex | NJ | 2026-05-06 01:35 | ASOS | 70 | 48 | 46 | 29.80 | 6 | SW | |||
| Sussex | NJ | 2026-05-06 00:20 | ASOS | 72 | 48 | 43 | 29.80 | 7 | SSW | |||
| Sussex | NJ | 2026-05-06 00:25 | ASOS | 70 | 48 | 46 | 29.80 | 6 | SW | |||
| Sussex | NJ | 2026-05-06 00:30 | ASOS | 70 | 48 | 46 | 29.80 | 7 | SSW | |||
| Sussex | NJ | 2026-05-06 00:53 | ASOS | 70 | 48 | 46 | 29.81 | 7 | ||||
| Sussex | NJ | 2026-05-06 01:20 | ASOS | 70 | 48 | 46 | 29.80 | 8 | SSW | |||
| Sussex | NJ | 2026-05-06 01:25 | ASOS | 70 | 48 | 46 | 29.80 | 7 | SW | |||
| Sussex | NJ | 2026-05-06 01:30 | ASOS | 70 | 48 | 46 | 29.80 | 7 | SSW | |||
| Sussex | NJ | 2026-05-06 01:53 | ASOS | 69 | 49 | 49 | 29.80 | 5 | SW | |||
| Sussex | NJ | 2026-05-06 03:25 | ASOS | 68 | 48 | 49 | 29.78 | 6 | SW | |||
| Sussex | NJ | 2026-05-06 02:15 | ASOS | 70 | 48 | 46 | 29.79 | 5 | WSW | |||
| Sussex | NJ | 2026-05-06 02:20 | ASOS | 70 | 48 | 46 | 29.79 | 5 | SW | |||
| Sussex | NJ | 2026-05-06 02:25 | ASOS | 70 | 48 | 46 | 29.79 | 3 | SW | |||
| Sussex | NJ | 2026-05-06 02:30 | ASOS | 68 | 48 | 49 | 29.79 | 5 | SW | |||
| Sussex | NJ | 2026-05-06 02:35 | ASOS | 68 | 48 | 49 | 29.79 | 3 | WSW | |||
| Sussex | NJ | 2026-05-06 02:53 | ASOS | 68 | 49 | 50 | 29.78 | 7 | SW | |||
| Sussex | NJ | 2026-05-06 03:20 | ASOS | 68 | 48 | 49 | 29.78 | 3 | SSW | |||
| Sussex | NJ | 2026-05-06 17:30 | ASOS | 63 | 57 | 83 | 29.73 | 5 | SW |
data collection created in 0.022742986679077 (queried in 0.004992) rendered in: 0.00028181076049805

